Time;durP1;ratioP1;P1;durP2;ratioP2;P2;SDS_P1;SDS_P2;PMS_P1;PMS_P2;Temp;Humidity;BMP_temperature;BMP_pressure;BME280_temperature;BME280_humidity;BME280_pressure;Samples;Min_cycle;Max_cycle;Signal;HPM_P1;HPM_P2
2021/03/11 00:00:11;;;;;;;27.80;22.10;;;10.00;99.90;;;;;;5024022;28;20108;-60
2021/03/11 00:02:37;;;;;;;26.33;20.90;;;10.10;99.90;;;;;;5022855;28;20105;-61
2021/03/11 00:05:06;;;;;;;30.65;21.48;;;10.10;99.90;;;;;;5014351;28;20475;-60
2021/03/11 00:07:32;;;;;;;32.97;22.75;;;10.00;99.90;;;;;;5014854;28;20045;-60
2021/03/11 00:09:58;;;;;;;37.25;21.80;;;9.80;99.90;;;;;;5014890;28;20030;-60
2021/03/11 00:12:24;;;;;;;31.38;22.50;;;9.80;99.90;;;;;;5013644;28;20049;-60
2021/03/11 00:14:49;;;;;;;33.65;23.33;;;9.90;99.90;;;;;;5015953;28;20066;-59
2021/03/11 00:17:15;;;;;;;32.90;23.83;;;9.90;99.90;;;;;;5012639;28;20022;-60
2021/03/11 00:19:43;;;;;;;30.05;22.42;;;10.10;99.90;;;;;;5017436;28;20034;-60
2021/03/11 00:22:09;;;;;;;31.80;22.63;;;9.80;99.90;;;;;;5018515;28;20508;-60
2021/03/11 00:24:34;;;;;;;36.85;22.80;;;9.50;99.90;;;;;;5018076;28;20034;-60
2021/03/11 00:27:00;;;;;;;33.08;23.45;;;9.40;99.90;;;;;;5012073;28;20028;-59
2021/03/11 00:29:25;;;;;;;34.33;22.05;;;9.50;99.90;;;;;;5018029;28;20034;-60
2021/03/11 00:31:51;;;;;;;31.00;22.65;;;9.80;99.90;;;;;;5009036;28;20034;-60
2021/03/11 00:34:17;;;;;;;29.02;22.08;;;9.70;99.90;;;;;;5018107;28;20048;-60
2021/03/11 00:36:42;;;;;;;29.02;22.20;;;9.70;99.90;;;;;;5011581;28;20025;-60
2021/03/11 00:39:08;;;;;;;30.40;22.38;;;9.60;99.90;;;;;;5017966;28;20026;-60
2021/03/11 00:41:35;;;;;;;28.02;20.67;;;9.50;99.90;;;;;;5011464;28;20076;-60
2021/03/11 00:44:01;;;;;;;28.05;22.30;;;9.80;99.90;;;;;;5024486;28;20277;-60
2021/03/11 00:46:26;;;;;;;31.55;22.60;;;9.50;99.90;;;;;;5027207;28;20033;-60
2021/03/11 00:48:52;;;;;;;27.10;22.15;;;9.70;99.90;;;;;;5019245;28;20487;-60
2021/03/11 00:51:18;;;;;;;29.30;21.13;;;9.70;99.90;;;;;;5009465;28;20102;-60
2021/03/11 00:53:43;;;;;;;30.98;21.35;;;9.50;99.90;;;;;;5019760;28;20030;-60
2021/03/11 00:56:09;;;;;;;33.22;20.63;;;9.50;99.90;;;;;;5009284;28;20088;-60
2021/03/11 00:58:34;;;;;;;28.60;20.90;;;9.60;99.90;;;;;;5020298;28;20049;-60
2021/03/11 01:01:00;;;;;;;26.25;19.40;;;9.60;99.90;;;;;;5025199;28;20031;-60
2021/03/11 01:03:26;;;;;;;25.27;19.70;;;9.40;99.90;;;;;;5024788;28;20185;-60
2021/03/11 01:05:52;;;;;;;26.75;19.83;;;9.40;99.90;;;;;;5012341;28;20112;-60
2021/03/11 01:08:18;;;;;;;29.25;19.80;;;9.50;99.90;;;;;;5023554;28;20025;-62
2021/03/11 01:10:44;;;;;;;29.63;19.13;;;9.50;99.90;;;;;;5012716;28;20352;-59
2021/03/11 01:13:09;;;;;;;24.90;20.13;;;9.50;99.90;;;;;;5022847;28;20030;-60
2021/03/11 01:15:43;;;;;;;30.42;19.70;;;9.40;99.90;;;;;;5013215;28;20419;-60
2021/03/11 01:18:10;;;;;;;26.58;20.85;;;9.30;99.90;;;;;;5022956;28;20049;-60
2021/03/11 01:20:36;;;;;;;27.23;20.77;;;9.40;99.90;;;;;;5013295;28;20162;-59
2021/03/11 01:23:02;;;;;;;27.13;20.73;;;9.70;99.90;;;;;;5022279;28;20021;-60
2021/03/11 01:25:28;;;;;;;27.30;20.05;;;9.60;99.90;;;;;;5014107;28;20029;-60
2021/03/11 01:27:53;;;;;;;31.77;21.45;;;9.70;99.90;;;;;;5020523;28;20494;-59
2021/03/11 01:30:19;;;;;;;26.73;20.55;;;9.60;99.90;;;;;;5015077;28;20025;-59
2021/03/11 01:32:45;;;;;;;29.95;21.55;;;9.60;99.90;;;;;;5019264;28;20494;-62
2021/03/11 01:35:11;;;;;;;28.40;20.33;;;9.70;99.90;;;;;;5015797;28;20045;-59
2021/03/11 01:37:37;;;;;;;25.65;20.00;;;9.60;99.90;;;;;;5017718;28;20036;-60
2021/03/11 01:40:05;;;;;;;35.95;21.30;;;9.70;99.90;;;;;;5017105;28;20029;-59
2021/03/11 01:42:31;;;;;;;33.90;21.90;;;9.70;99.90;;;;;;5017092;28;20048;-59
2021/03/11 01:44:57;;;;;;;27.42;20.67;;;9.70;99.90;;;;;;5031482;28;20021;-59
2021/03/11 01:47:22;;;;;;;30.20;21.63;;;9.90;99.90;;;;;;5025365;28;20025;-59
2021/03/11 01:49:48;;;;;;;29.55;21.67;;;9.80;99.90;;;;;;5018796;28;20030;-59
2021/03/11 01:52:13;;;;;;;31.13;21.45;;;9.70;99.90;;;;;;5014518;28;20026;-60
2021/03/11 01:54:39;;;;;;;30.65;20.73;;;9.50;99.90;;;;;;5019788;28;20033;-59
2021/03/11 01:57:06;;;;;;;26.35;21.40;;;9.80;99.90;;;;;;5014202;28;20080;-59
2021/03/11 01:59:32;;;;;;;28.20;21.83;;;9.70;99.90;;;;;;5020482;28;20061;-60
2021/03/11 02:01:58;;;;;;;29.90;20.88;;;9.60;99.90;;;;;;5014030;28;20111;-59
2021/03/11 02:04:24;;;;;;;29.35;21.73;;;9.80;99.90;;;;;;5019975;28;20510;-60
2021/03/11 02:06:51;;;;;;;27.20;21.55;;;9.70;99.90;;;;;;5013879;28;20029;-59
2021/03/11 02:09:17;;;;;;;25.40;20.27;;;9.60;99.90;;;;;;5020144;28;20053;-60
2021/03/11 02:11:49;;;;;;;27.08;20.35;;;9.60;99.90;;;;;;5014027;28;20033;-60
2021/03/11 02:14:51;;;;;;;25.17;20.88;;;9.70;99.90;;;;;;5018947;28;20033;-60
2021/03/11 02:17:21;;;;;;;27.08;20.20;;;9.60;99.90;;;;;;5014425;28;20106;-59
2021/03/11 02:19:53;;;;;;;24.63;19.15;;;9.70;99.90;;;;;;5018802;28;20338;-60
2021/03/11 02:22:26;;;;;;;25.65;19.70;;;9.90;99.90;;;;;;5014295;28;20034;-60
2021/03/11 02:25:10;;;;;;;25.73;19.95;;;9.80;99.90;;;;;;5017878;28;20513;-60
2021/03/11 02:28:10;;;;;;;26.38;19.88;;;9.90;99.90;;;;;;5016769;28;20540;-59
2021/03/11 02:30:37;;;;;;;23.45;19.35;;;9.80;99.90;;;;;;5011774;28;20045;-59
2021/03/11 02:33:05;;;;;;;27.70;19.23;;;9.80;99.90;;;;;;5020319;28;20393;-60
2021/03/11 02:35:31;;;;;;;29.63;18.83;;;9.80;99.90;;;;;;5012207;28;20092;-59
2021/03/11 02:37:58;;;;;;;25.98;18.35;;;9.70;99.90;;;;;;5019336;28;20021;-60
2021/03/11 02:40:27;;;;;;;25.77;18.83;;;9.70;99.90;;;;;;5013304;28;20072;-60
2021/03/11 02:42:54;;;;;;;25.67;17.65;;;9.90;99.90;;;;;;5018827;28;20029;-59
2021/03/11 02:45:26;;;;;;;22.10;18.45;;;9.80;99.90;;;;;;5030253;28;20021;-60
2021/03/11 02:47:52;;;;;;;28.55;18.52;;;9.90;99.90;;;;;;5024378;28;20048;-60
2021/03/11 02:50:19;;;;;;;23.33;17.90;;;10.00;99.90;;;;;;5013714;28;20030;-60
2021/03/11 02:52:46;;;;;;;21.75;17.38;;;10.00;99.90;;;;;;5017382;28;20065;-60
2021/03/11 02:55:12;;;;;;;25.13;18.80;;;9.90;99.90;;;;;;5014404;28;20038;-59
2021/03/11 02:57:40;;;;;;;25.13;19.17;;;9.80;99.90;;;;;;5016691;28;20116;-59
2021/03/11 03:00:11;;;;;;;21.65;16.80;;;9.90;99.90;;;;;;5015239;28;20072;-60
2021/03/11 03:02:40;;;;;;;23.60;17.33;;;9.90;99.90;;;;;;5016249;28;20032;-59
2021/03/11 03:05:09;;;;;;;26.30;17.92;;;9.80;99.90;;;;;;5015085;28;20057;-60
2021/03/11 03:07:38;;;;;;;21.65;17.05;;;9.90;99.90;;;;;;5015671;28;20022;-60
2021/03/11 03:10:05;;;;;;;21.33;16.65;;;9.90;99.90;;;;;;5015444;28;20026;-60
2021/03/11 03:12:33;;;;;;;24.23;17.60;;;9.80;99.90;;;;;;5015257;28;20555;-60
2021/03/11 03:14:59;;;;;;;19.20;17.10;;;9.90;99.90;;;;;;5016110;28;20108;-59
2021/03/11 03:17:25;;;;;;;22.98;16.95;;;10.00;99.90;;;;;;5014285;28;20044;-59
2021/03/11 03:19:51;;;;;;;19.98;15.85;;;10.00;99.90;;;;;;5017195;28;20104;-59
2021/03/11 03:22:18;;;;;;;21.02;16.02;;;9.90;99.90;;;;;;5013130;28;20125;-60
2021/03/11 03:24:46;;;;;;;18.85;14.70;;;9.60;99.90;;;;;;5017895;28;20423;-60
2021/03/11 03:27:14;;;;;;;18.33;16.20;;;9.80;99.90;;;;;;5012606;28;20487;-59
2021/03/11 03:29:41;;;;;;;18.85;15.23;;;9.80;99.90;;;;;;5018553;28;20108;-60
2021/03/11 03:32:08;;;;;;;19.48;13.82;;;9.80;99.90;;;;;;5012705;28;20025;-60
2021/03/11 03:34:33;;;;;;;16.25;14.65;;;9.90;99.90;;;;;;5018588;28;20483;-59
2021/03/11 03:36:59;;;;;;;17.00;15.15;;;10.10;99.90;;;;;;5012017;28;20072;-59
2021/03/11 03:39:26;;;;;;;21.67;15.13;;;9.90;99.90;;;;;;5018372;28;20057;-60
2021/03/11 03:41:56;;;;;;;18.33;14.90;;;10.10;99.90;;;;;;5012201;28;20030;-62
2021/03/11 03:44:24;;;;;;;16.30;13.88;;;10.10;99.90;;;;;;5027059;28;20033;-60
2021/03/11 03:46:51;;;;;;;18.05;14.93;;;10.10;99.90;;;;;;5026450;28;20030;-60
2021/03/11 03:49:18;;;;;;;16.45;14.60;;;10.10;99.90;;;;;;5018577;28;20557;-60
2021/03/11 03:51:47;;;;;;;19.58;16.60;;;10.10;99.90;;;;;;5012097;28;20028;-59
2021/03/11 03:54:20;;;;;;;20.73;16.73;;;10.00;99.90;;;;;;5018374;28;20022;-59
2021/03/11 03:56:57;;;;;;;19.77;15.75;;;9.90;99.90;;;;;;5012226;28;20125;-60
2021/03/11 03:59:30;;;;;;;25.60;16.40;;;10.00;99.90;;;;;;5022564;28;20104;-60
2021/03/11 04:01:58;;;;;;;22.10;17.10;;;9.90;99.90;;;;;;5025432;28;20025;-59
2021/03/11 04:04:29;;;;;;;22.20;16.42;;;9.80;99.90;;;;;;5018216;28;20166;-60
2021/03/11 04:06:57;;;;;;;19.35;16.88;;;9.90;99.90;;;;;;5011978;28;20068;-59
2021/03/11 04:09:25;;;;;;;21.85;15.70;;;10.00;99.90;;;;;;5018393;28;20022;-59
2021/03/11 04:11:51;;;;;;;20.13;15.98;;;9.90;99.90;;;;;;5012182;28;20083;-60
2021/03/11 04:14:19;;;;;;;21.15;16.48;;;9.80;99.90;;;;;;5018174;28;20049;-60
2021/03/11 04:16:46;;;;;;;19.17;16.55;;;9.80;99.90;;;;;;5012040;28;20053;-60
2021/03/11 04:19:12;;;;;;;21.02;17.20;;;9.60;99.90;;;;;;5018372;28;20392;-59
2021/03/11 04:21:39;;;;;;;20.52;16.13;;;9.90;99.90;;;;;;5018858;28;20128;-60
2021/03/11 04:24:06;;;;;;;17.90;16.05;;;9.80;99.90;;;;;;5018089;28;20034;-63
2021/03/11 04:26:34;;;;;;;18.58;16.58;;;9.90;99.90;;;;;;5010571;28;20410;-60
2021/03/11 04:29:01;;;;;;;19.88;17.42;;;9.90;99.90;;;;;;5019004;28;20021;-59
2021/03/11 04:31:27;;;;;;;23.42;18.15;;;9.80;99.90;;;;;;5010082;28;20026;-59
2021/03/11 04:33:54;;;;;;;19.52;16.30;;;9.80;99.90;;;;;;5019802;28;20376;-59
2021/03/11 04:36:20;;;;;;;23.80;16.77;;;9.70;99.90;;;;;;5009367;28;20038;-60
2021/03/11 04:38:47;;;;;;;21.02;17.35;;;9.90;99.90;;;;;;5023697;28;20513;-59
2021/03/11 04:41:13;;;;;;;22.10;16.08;;;9.70;99.90;;;;;;5012903;28;20037;-59
2021/03/11 04:43:40;;;;;;;19.58;17.38;;;9.90;99.90;;;;;;5026884;28;20399;-60
2021/03/11 04:46:06;;;;;;;18.35;16.13;;;9.90;99.90;;;;;;5032854;28;20026;-60
2021/03/11 04:48:33;;;;;;;22.77;16.35;;;9.90;99.90;;;;;;5029947;28;20513;-60
2021/03/11 04:51:01;;;;;;;18.95;16.88;;;9.70;99.90;;;;;;5031826;28;20029;-60
2021/03/11 04:53:27;;;;;;;16.30;14.68;;;9.80;99.90;;;;;;5029490;28;20021;-60
2021/03/11 04:55:54;;;;;;;18.58;15.77;;;9.90;99.90;;;;;;5032634;28;20028;-60
2021/03/11 04:58:20;;;;;;;19.58;15.60;;;9.80;99.90;;;;;;5026051;28;20601;-60
2021/03/11 05:00:47;;;;;;;17.70;15.18;;;9.80;99.90;;;;;;5012724;28;20021;-60
2021/03/11 05:03:14;;;;;;;18.73;15.93;;;9.70;99.90;;;;;;5023038;28;20064;-63
2021/03/11 05:05:41;;;;;;;19.85;15.50;;;9.70;99.90;;;;;;5012685;28;20049;-60
2021/03/11 05:08:08;;;;;;;21.92;15.93;;;9.90;99.90;;;;;;5025851;28;20075;-59
2021/03/11 05:10:34;;;;;;;18.35;16.45;;;9.90;99.90;;;;;;5031701;28;20071;-60
2021/03/11 05:13:01;;;;;;;20.48;15.82;;;9.80;99.90;;;;;;5030238;28;20542;-61
2021/03/11 05:15:27;;;;;;;21.58;16.85;;;9.90;99.90;;;;;;5031466;28;20073;-59
2021/03/11 05:17:53;;;;;;;19.15;16.08;;;9.70;99.90;;;;;;5030706;28;20061;-61
2021/03/11 05:20:20;;;;;;;18.08;16.10;;;9.80;99.90;;;;;;5028219;28;20527;-61
2021/03/11 05:22:46;;;;;;;20.75;15.52;;;9.90;99.90;;;;;;5029639;28;20026;-60
2021/03/11 05:25:12;;;;;;;18.13;15.68;;;9.80;99.90;;;;;;5030830;28;20025;-60
2021/03/11 05:27:39;;;;;;;20.48;16.85;;;9.90;99.90;;;;;;5028227;28;20036;-60
2021/03/11 05:30:11;;;;;;;21.00;17.48;;;9.80;99.90;;;;;;5031000;28;20026;-59
2021/03/11 05:32:37;;;;;;;19.20;16.50;;;9.70;99.90;;;;;;5029570;28;20017;-60
2021/03/11 05:35:04;;;;;;;21.48;16.65;;;9.70;99.90;;;;;;5029626;28;20592;-60
2021/03/11 05:37:30;;;;;;;20.33;16.77;;;9.60;99.90;;;;;;5028596;28;20083;-60
2021/03/11 05:39:58;;;;;;;22.70;16.88;;;9.50;99.90;;;;;;5030736;28;20025;-61
2021/03/11 05:42:24;;;;;;;20.73;17.33;;;9.40;99.90;;;;;;5029868;28;20017;-61
2021/03/11 05:44:52;;;;;;;23.73;17.48;;;9.60;99.90;;;;;;5031114;28;20029;-61
2021/03/11 05:47:19;;;;;;;18.27;16.20;;;9.50;99.90;;;;;;5029028;28;20032;-60
2021/03/11 05:49:45;;;;;;;17.52;15.73;;;9.50;99.90;;;;;;5030468;28;20410;-62
2021/03/11 05:52:12;;;;;;;19.85;16.25;;;9.40;99.90;;;;;;5027801;28;20418;-60
2021/03/11 05:54:39;;;;;;;19.33;15.38;;;9.50;99.90;;;;;;5030299;28;20087;-59
2021/03/11 05:57:06;;;;;;;26.10;15.63;;;9.50;99.90;;;;;;5026118;28;20025;-60
2021/03/11 05:59:33;;;;;;;17.98;15.70;;;9.90;99.90;;;;;;5029746;28;20084;-60
2021/03/11 06:02:08;;;;;;;18.67;15.88;;;9.60;99.90;;;;;;5028874;28;20029;-60
2021/03/11 06:04:34;;;;;;;17.00;15.20;;;9.60;99.90;;;;;;5030920;28;20098;-60
2021/03/11 06:07:02;;;;;;;22.17;16.45;;;9.60;99.90;;;;;;5027038;28;20084;-61
2021/03/11 06:09:28;;;;;;;19.17;16.02;;;9.50;99.90;;;;;;5020209;28;20375;-59
2021/03/11 06:11:56;;;;;;;18.88;16.85;;;9.40;99.90;;;;;;5014055;28;20039;-60
2021/03/11 06:14:25;;;;;;;18.42;15.60;;;9.20;99.90;;;;;;5019693;28;20065;-60
2021/03/11 06:16:59;;;;;;;22.88;15.80;;;9.30;99.90;;;;;;5013740;28;20057;-64
2021/03/11 06:19:25;;;;;;;21.00;17.00;;;9.20;99.90;;;;;;5020137;28;20076;-61
2021/03/11 06:21:52;;;;;;;19.08;15.88;;;9.40;99.90;;;;;;5013693;28;20029;-61
2021/03/11 06:24:18;;;;;;;17.60;15.52;;;9.50;99.90;;;;;;5019773;28;20564;-60
2021/03/11 06:26:44;;;;;;;24.08;15.63;;;9.40;99.90;;;;;;5013661;28;20121;-60
2021/03/11 06:29:09;;;;;;;20.00;15.02;;;9.40;99.90;;;;;;5020154;28;20125;-60
2021/03/11 06:31:37;;;;;;;20.35;15.77;;;9.30;99.90;;;;;;5012444;28;20083;-60
2021/03/11 06:34:21;;;;;;;18.83;15.52;;;9.40;99.90;;;;;;5021421;28;20026;-60
2021/03/11 06:36:47;;;;;;;17.75;15.75;;;9.30;99.90;;;;;;5028509;28;20026;-61
2021/03/11 06:39:30;;;;;;;15.60;13.95;;;9.50;99.90;;;;;;5019472;28;20022;-60
2021/03/11 06:41:57;;;;;;;18.38;15.65;;;9.50;99.90;;;;;;5013332;28;20092;-61
2021/03/11 06:44:39;;;;;;;23.98;14.77;;;9.60;99.90;;;;;;5027805;28;20049;-60
2021/03/11 06:47:10;;;;;;;18.73;14.35;;;9.70;99.90;;;;;;5025914;28;20042;-60
2021/03/11 06:49:39;;;;;;;21.55;15.52;;;9.80;99.90;;;;;;5023565;28;20025;-62
2021/03/11 06:52:15;;;;;;;17.95;14.57;;;9.80;99.90;;;;;;5028195;28;20101;-61
2021/03/11 06:54:58;;;;;;;18.92;14.48;;;9.90;99.90;;;;;;5029831;28;20066;-61
2021/03/11 06:57:33;;;;;;;17.90;15.05;;;10.00;99.90;;;;;;5027589;28;20127;-61
2021/03/11 07:00:01;;;;;;;21.13;13.35;;;9.90;99.90;;;;;;5028222;28;20026;-61
2021/03/11 07:02:28;;;;;;;19.15;14.77;;;9.80;99.90;;;;;;5023515;28;20029;-60
2021/03/11 07:04:56;;;;;;;25.75;14.57;;;9.90;99.90;;;;;;5029500;28;20049;-60
2021/03/11 07:07:24;;;;;;;16.23;13.90;;;10.10;99.90;;;;;;5023742;28;20036;-60
2021/03/11 07:09:54;;;;;;;16.42;13.23;;;10.00;99.90;;;;;;5017983;28;20022;-60
2021/03/11 07:12:20;;;;;;;18.27;14.20;;;10.10;99.90;;;;;;5013344;28;20038;-60
2021/03/11 07:14:49;;;;;;;21.23;14.52;;;9.90;99.90;;;;;;5018242;28;20053;-60
2021/03/11 07:17:25;;;;;;;21.33;15.80;;;9.90;99.90;;;;;;5012805;28;20022;-61
2021/03/11 07:20:14;;;;;;;385.55;43.83;;;9.90;99.90;;;;;;5022607;28;20017;-60
2021/03/11 07:22:41;;;;;;;110.85;20.20;;;10.00;99.90;;;;;;5023602;28;20033;-60
2021/03/11 07:25:27;;;;;;;30.48;15.15;;;10.10;99.90;;;;;;5015482;28;20041;-60
2021/03/11 07:27:53;;;;;;;16.70;14.48;;;10.10;99.90;;;;;;5017274;28;20512;-60
2021/03/11 07:30:19;;;;;;;18.02;13.77;;;10.20;99.90;;;;;;5013886;28;20029;-60
2021/03/11 07:32:46;;;;;;;20.50;14.60;;;10.10;99.90;;;;;;5016404;28;20033;-60
2021/03/11 07:35:17;;;;;;;20.55;14.35;;;10.00;99.90;;;;;;5014825;28;20034;-60
2021/03/11 07:37:47;;;;;;;25.25;14.82;;;10.00;99.90;;;;;;5015418;28;20054;-60
2021/03/11 07:40:14;;;;;;;27.95;15.65;;;9.90;99.90;;;;;;5018930;28;20026;-60
2021/03/11 07:42:41;;;;;;;25.10;15.20;;;9.90;99.90;;;;;;5027330;28;20453;-61
2021/03/11 07:45:10;;;;;;;19.30;15.13;;;10.00;99.90;;;;;;5028575;28;20026;-60
2021/03/11 07:47:36;;;;;;;18.67;13.85;;;10.00;99.90;;;;;;5022750;28;20026;-61
2021/03/11 07:50:03;;;;;;;15.07;13.30;;;10.00;99.90;;;;;;5028909;28;20571;-60
2021/03/11 07:52:31;;;;;;;20.90;14.02;;;10.20;99.90;;;;;;5027066;28;20130;-61
2021/03/11 07:54:57;;;;;;;19.23;13.90;;;10.20;99.90;;;;;;5028388;28;20116;-60
2021/03/11 07:57:24;;;;;;;21.48;14.30;;;10.30;99.90;;;;;;5023237;28;20093;-60
2021/03/11 07:59:49;;;;;;;17.90;13.63;;;10.30;99.90;;;;;;5017608;28;20026;-60
2021/03/11 08:02:20;;;;;;;16.38;12.82;;;10.40;99.90;;;;;;5021760;28;20454;-61
2021/03/11 08:04:47;;;;;;;19.40;14.75;;;10.60;99.90;;;;;;5020863;28;20049;-60
2021/03/11 08:07:19;;;;;;;21.30;13.48;;;11.30;99.90;;;;;;5023763;28;20650;-60
2021/03/11 08:09:48;;;;;;;16.52;12.73;;;11.10;99.90;;;;;;5021174;28;20080;-60
2021/03/11 08:12:37;;;;;;;16.65;12.60;;;11.00;99.90;;;;;;5025078;28;20655;-61
2021/03/11 08:15:18;;;;;;;15.02;12.65;;;11.00;99.90;;;;;;5027011;28;20041;-61
2021/03/11 08:17:48;;;;;;;15.65;12.30;;;11.10;99.90;;;;;;5027152;28;20022;-60
2021/03/11 08:20:20;;;;;;;15.15;12.05;;;11.00;99.90;;;;;;5030949;28;20040;-61
2021/03/11 08:22:52;;;;;;;13.18;11.85;;;11.30;99.90;;;;;;5027132;28;20087;-60
2021/03/11 08:25:36;;;;;;;14.02;11.60;;;11.30;99.90;;;;;;5017022;28;20052;-60
2021/03/11 08:28:08;;;;;;;16.30;11.32;;;11.50;99.90;;;;;;5021699;28;20112;-60
2021/03/11 08:30:40;;;;;;;11.77;10.57;;;11.50;99.90;;;;;;5015280;28;20026;-60
2021/03/11 08:33:10;;;;;;;11.63;10.43;;;11.60;99.90;;;;;;5022116;28;20057;-60
2021/03/11 08:35:36;;;;;;;11.60;10.25;;;11.80;99.90;;;;;;5014571;28;20045;-60
2021/03/11 08:38:22;;;;;;;10.93;9.50;;;11.90;99.90;;;;;;5021383;28;20025;-61
2021/03/11 08:41:06;;;;;;;12.13;10.63;;;12.10;99.90;;;;;;5013196;28;20033;-60
2021/03/11 08:43:35;;;;;;;11.52;9.98;;;12.10;99.90;;;;;;5025329;28;20136;-61
2021/03/11 08:46:04;;;;;;;10.40;9.23;;;12.30;99.90;;;;;;5032927;28;20528;-60
2021/03/11 08:48:50;;;;;;;13.48;10.77;;;12.60;99.90;;;;;;5026068;28;20110;-64
2021/03/11 08:51:18;;;;;;;11.98;9.30;;;12.70;99.90;;;;;;5030143;28;20023;-61
2021/03/11 08:54:08;;;;;;;11.27;9.77;;;13.10;99.90;;;;;;5031381;28;20063;-60
2021/03/11 08:56:34;;;;;;;11.25;9.07;;;13.10;99.90;;;;;;5029455;28;20068;-60
2021/03/11 08:59:00;;;;;;;14.85;9.15;;;13.20;99.90;;;;;;5032767;28;20013;-60
2021/03/11 09:01:31;;;;;;;9.27;8.25;;;13.20;99.90;;;;;;5030733;28;20486;-61
2021/03/11 09:03:57;;;;;;;9.63;8.25;;;13.50;99.90;;;;;;5030133;28;20026;-61
2021/03/11 09:06:51;;;;;;;9.95;6.57;;;13.60;99.90;;;;;;5029309;28;20057;-61
2021/03/11 09:09:30;;;;;;;9.30;7.18;;;13.90;99.90;;;;;;5028949;28;20417;-61
2021/03/11 09:11:56;;;;;;;9.05;7.15;;;13.80;99.90;;;;;;5027639;28;20124;-61
2021/03/11 09:14:23;;;;;;;6.60;6.00;;;14.10;99.90;;;;;;5027334;28;20041;-63
2021/03/11 09:16:49;;;;;;;9.65;5.80;;;14.30;99.90;;;;;;5028509;28;20022;-61
2021/03/11 09:19:16;;;;;;;10.70;6.90;;;14.30;99.90;;;;;;5030414;28;20083;-61
2021/03/11 09:21:42;;;;;;;6.35;5.82;;;14.40;99.90;;;;;;5028709;28;20025;-65
2021/03/11 09:24:20;;;;;;;10.60;6.72;;;14.30;99.90;;;;;;5029327;28;20014;-65
2021/03/11 09:26:47;;;;;;;6.78;6.00;;;14.80;99.90;;;;;;5028890;28;20109;-61
2021/03/11 09:29:14;;;;;;;5.30;4.80;;;15.00;99.90;;;;;;5019680;28;20382;-61
2021/03/11 09:31:40;;;;;;;6.75;5.00;;;15.20;99.90;;;;;;5012683;28;20056;-61
2021/03/11 09:34:07;;;;;;;4.72;4.40;;;15.00;99.90;;;;;;5026046;28;20075;-61
2021/03/11 09:36:34;;;;;;;3.35;2.95;;;14.90;99.90;;;;;;5028423;28;20390;-62
2021/03/11 09:39:06;;;;;;;2.42;2.22;;;14.80;99.90;;;;;;5020761;28;20050;-62
2021/03/11 09:41:32;;;;;;;4.88;4.38;;;15.10;99.90;;;;;;5011519;28;20022;-62
2021/03/11 09:44:06;;;;;;;4.53;4.20;;;15.20;99.90;;;;;;5022755;28;20036;-62
2021/03/11 09:46:32;;;;;;;3.35;3.05;;;15.10;99.90;;;;;;5026324;28;20688;-62
2021/03/11 09:48:59;;;;;;;4.45;3.00;;;15.50;99.90;;;;;;5020266;28;20417;-62
2021/03/11 09:51:25;;;;;;;5.13;3.53;;;15.60;99.90;;;;;;5029765;28;20090;-62
2021/03/11 09:53:58;;;;;;;4.13;3.10;;;15.90;99.90;;;;;;5024923;28;20041;-62
2021/03/11 09:56:51;;;;;;;3.90;2.30;;;15.80;99.90;;;;;;5029963;28;20104;-61
2021/03/11 09:59:17;;;;;;;4.85;2.50;;;15.70;99.90;;;;;;5019001;28;20034;-61
2021/03/11 10:01:44;;;;;;;2.35;2.13;;;16.00;99.90;;;;;;5012416;28;20037;-62
2021/03/11 10:04:25;;;;;;;4.05;2.58;;;16.30;99.90;;;;;;4996706;28;662339;-62
2021/03/11 10:06:52;;;;;;;2.25;2.15;;;16.50;99.90;;;;;;5013851;28;20038;-62
2021/03/11 10:09:18;;;;;;;3.30;3.00;;;16.70;99.90;;;;;;5020313;28;20030;-62
2021/03/11 10:11:46;;;;;;;5.38;2.85;;;16.50;99.90;;;;;;5013442;28;20021;-62
2021/03/11 10:14:23;;;;;;;3.03;2.72;;;16.60;99.90;;;;;;5020011;28;20735;-62
2021/03/11 10:16:51;;;;;;;2.42;2.10;;;16.60;99.90;;;;;;5013774;28;20045;-62
2021/03/11 10:19:17;;;;;;;2.70;2.50;;;16.80;99.90;;;;;;5020272;28;20453;-62
2021/03/11 10:21:55;;;;;;;2.55;2.35;;;17.20;99.90;;;;;;5012951;28;20136;-62
2021/03/11 10:24:51;;;;;;;3.38;2.13;;;17.10;99.90;;;;;;5019847;28;20022;-62
2021/03/11 10:27:17;;;;;;;2.37;2.10;;;17.40;99.90;;;;;;5013727;28;20087;-62
2021/03/11 10:29:43;;;;;;;2.78;1.40;;;17.30;99.90;;;;;;5019897;28;20026;-61
2021/03/11 10:32:09;;;;;;;1.73;1.63;;;17.50;99.90;;;;;;5013496;28;20045;-62
2021/03/11 10:34:49;;;;;;;2.38;1.58;;;17.60;99.90;;;;;;5018747;28;20045;-62
2021/03/11 10:37:25;;;;;;;2.30;1.33;;;17.70;99.90;;;;;;5013344;28;20511;-62
2021/03/11 10:39:58;;;;;;;4.03;1.60;;;17.60;99.90;;;;;;5022708;28;20030;-62
2021/03/11 10:42:45;;;;;;;1.80;1.55;;;18.00;99.90;;;;;;5024482;28;20057;-62
2021/03/11 10:45:11;;;;;;;;;;;17.70;99.90;;;;;;5018688;28;20539;-62
2021/03/11 10:47:37;;;;;;;;;;;18.00;99.90;;;;;;5024774;28;19932;-62
2021/03/11 10:50:19;;;;;;;4.97;2.10;;;18.40;99.90;;;;;;5017412;28;20378;-62
2021/03/11 10:52:55;;;;;;;3.08;1.95;;;18.80;99.90;;;;;;5016266;28;20103;-62
2021/03/11 10:55:25;;;;;;;2.70;1.52;;;19.00;99.90;;;;;;5014592;28;20038;-62
2021/03/11 10:57:51;;;;;;;6.30;2.00;;;19.10;99.90;;;;;;5017138;28;20040;-62
2021/03/11 11:00:22;;;;;;;4.35;2.35;;;19.20;99.90;;;;;;5015106;28;20510;-62
2021/03/11 11:02:53;;;;;;;4.35;1.67;;;18.60;99.90;;;;;;5016442;28;20028;-62
2021/03/11 11:05:19;;;;;;;2.38;1.77;;;19.00;99.90;;;;;;5014648;28;20403;-62
2021/03/11 11:07:44;;;;;;;9.98;2.22;;;18.80;99.90;;;;;;5016141;28;20021;-62
2021/03/11 11:10:11;;;;;;;4.93;2.13;;;18.90;99.90;;;;;;5015868;28;20512;-62
2021/03/11 11:12:36;;;;;;;8.82;2.00;;;19.20;99.90;;;;;;5015091;28;20505;-62
2021/03/11 11:15:02;;;;;;;1.90;1.55;;;19.40;99.90;;;;;;5016805;28;20070;-62
2021/03/11 11:17:28;;;;;;;3.17;1.35;;;19.60;99.90;;;;;;5013582;28;20020;-62
2021/03/11 11:19:54;;;;;;;1.58;1.20;;;19.70;99.90;;;;;;5018157;28;20124;-62
2021/03/11 11:22:19;;;;;;;3.65;1.40;;;19.80;99.90;;;;;;5012600;28;20037;-62
2021/03/11 11:24:45;;;;;;;1.77;1.35;;;19.90;99.90;;;;;;5018897;28;20034;-62
2021/03/11 11:27:13;;;;;;;8.35;1.77;;;19.70;99.90;;;;;;5012626;28;20101;-62
2021/03/11 11:29:39;;;;;;;1.95;1.48;;;19.40;99.90;;;;;;5018801;28;20033;-62
2021/03/11 11:32:05;;;;;;;5.15;2.03;;;19.90;99.90;;;;;;5012552;28;20021;-62
2021/03/11 11:34:31;;;;;;;5.72;1.60;;;20.00;99.90;;;;;;5018708;28;20065;-62
2021/03/11 11:36:57;;;;;;;5.97;1.80;;;20.00;99.90;;;;;;5012386;28;20041;-62
2021/03/11 11:39:22;;;;;;;2.65;1.65;;;20.00;99.90;;;;;;5018623;28;20105;-63
2021/03/11 11:41:50;;;;;;;3.50;1.73;;;20.00;99.90;;;;;;5012338;28;20017;-62
2021/03/11 11:44:16;;;;;;;3.97;1.60;;;20.10;99.90;;;;;;5025572;28;20406;-62
2021/03/11 11:46:43;;;;;;;3.30;1.70;;;20.20;99.90;;;;;;5027762;28;20025;-62
2021/03/11 11:49:10;;;;;;;6.95;1.50;;;20.20;99.90;;;;;;5025454;28;20033;-62
2021/03/11 11:51:36;;;;;;;6.40;1.77;;;20.30;99.90;;;;;;5025232;28;20028;-62
2021/03/11 11:54:02;;;;;;;4.18;1.30;;;20.40;99.90;;;;;;5034576;28;20086;-62
2021/03/11 11:56:27;;;;;;;8.25;1.70;;;20.30;99.90;;;;;;5020083;28;20025;-61
2021/03/11 11:58:53;;;;;;;5.60;1.30;;;20.20;99.90;;;;;;5031788;28;20029;-62
2021/03/11 12:01:19;;;;;;;2.08;1.65;;;20.60;99.90;;;;;;5041987;28;20619;-62
2021/03/11 12:03:45;;;;;;;4.45;1.70;;;20.80;99.90;;;;;;5022368;28;20018;-62
2021/03/11 12:06:12;;;;;;;2.47;1.92;;;21.10;99.90;;;;;;5029501;28;20196;-62
2021/03/11 12:08:39;;;;;;;6.55;2.05;;;21.40;99.90;;;;;;5026051;28;20018;-62
2021/03/11 12:11:04;;;;;;;2.80;1.77;;;21.60;99.90;;;;;;5028612;28;20030;-62
2021/03/11 12:13:32;;;;;;;3.08;1.70;;;21.50;99.90;;;;;;5025838;28;20087;-62
2021/03/11 12:15:58;;;;;;;1.80;1.67;;;20.90;99.90;;;;;;5027676;28;20049;-62
2021/03/11 12:18:24;;;;;;;3.20;2.10;;;21.30;99.90;;;;;;5026271;28;20052;-62
2021/03/11 12:20:49;;;;;;;17.95;2.47;;;21.50;99.90;;;;;;5027208;28;20045;-62
2021/03/11 12:23:15;;;;;;;1.98;1.55;;;21.60;99.90;;;;;;5026458;28;20028;-62
2021/03/11 12:25:41;;;;;;;4.18;1.90;;;22.00;99.90;;;;;;5027918;28;20109;-62
2021/03/11 12:28:07;;;;;;;4.30;1.48;;;22.20;99.90;;;;;;5026297;28;20036;-62
2021/03/11 12:30:33;;;;;;;2.05;1.42;;;22.40;99.90;;;;;;5028314;28;20425;-62
2021/03/11 12:32:59;;;;;;;8.48;2.17;;;22.50;99.90;;;;;;5026344;28;20013;-62
2021/03/11 12:35:26;;;;;;;2.35;1.60;;;22.30;99.90;;;;;;5028805;28;20034;-62
2021/03/11 12:37:52;;;;;;;3.35;1.67;;;22.40;99.90;;;;;;5026696;28;20032;-62
2021/03/11 12:40:18;;;;;;;5.15;2.00;;;22.10;99.90;;;;;;5028196;28;20029;-62
2021/03/11 12:42:47;;;;;;;2.50;2.30;;;21.90;99.90;;;;;;5026072;28;20332;-62
2021/03/11 12:45:17;;;;;;;1.95;1.83;;;22.00;99.90;;;;;;5026267;28;20045;-62